Weather at Offshore Helipad

Public forecast

Using degrees Celsius for public forecast. Weather courtesy of forecast.io.

Closest aviation weather report (METAR) to Offshore Helipad

Closest report is Al Bateen Executive Airport, 49.4 nm (91.5 km) SE.

2024/06/17 04:00 (retrieved 34 minutes ago)

OMAD 170400Z 08004KT 050V120 CAVOK 34/27 Q1001 NOSIG

Closest aviation forecast (TAF) to Offshore Helipad

Forecast is more than 6 hours old.

Closest forecast is Bahrain International Airport, 185.8 nm (344.2 km) WNW.

2024/06/16 18:00 (retrieved 11 hours ago)

TAF OBBI 161700Z 1618/1800 06007KT CAVOK BECMG 1700/1702 32010KT BECMG 1715/1717 VRB05KT